Time;durP1;ratioP1;P1;durP2;ratioP2;P2;SDS_P1;SDS_P2;PMS_P1;PMS_P2;Temp;Humidity;BMP_temperature;BMP_pressure;BME280_temperature;BME280_humidity;BME280_pressure;Samples;Min_cycle;Max_cycle;Signal;HPM_P1;HPM_P2
2022/04/20 00:00:34;;;;;;;6.70;4.43;;;6.30;99.90;;;;;;4991765;28;20125;-86
2022/04/20 00:03:01;;;;;;;8.35;4.05;;;6.10;99.90;;;;;;4993754;28;20138;-86
2022/04/20 00:05:26;;;;;;;6.05;4.28;;;6.10;99.90;;;;;;5017776;28;20038;-87
2022/04/20 00:07:52;;;;;;;9.55;4.25;;;6.10;99.90;;;;;;4977489;28;20111;-86
2022/04/20 00:10:18;;;;;;;8.73;4.72;;;6.10;99.90;;;;;;4975423;28;20046;-85
2022/04/20 00:12:44;;;;;;;7.55;4.63;;;6.00;99.90;;;;;;4975832;28;20057;-86
2022/04/20 00:15:10;;;;;;;6.68;4.30;;;6.00;99.90;;;;;;5005332;28;20404;-86
2022/04/20 00:17:35;;;;;;;6.30;4.13;;;6.00;99.90;;;;;;4978550;28;20124;-86
2022/04/20 00:20:01;;;;;;;6.10;4.22;;;5.90;99.90;;;;;;4977470;28;20042;-87
2022/04/20 00:22:27;;;;;;;8.65;4.55;;;5.90;99.90;;;;;;4991292;28;20069;-86
2022/04/20 00:24:53;;;;;;;7.47;4.53;;;5.90;99.90;;;;;;4992779;28;20137;-87
2022/04/20 00:27:18;;;;;;;5.95;4.40;;;5.80;99.90;;;;;;4976175;28;20041;-86
2022/04/20 00:29:44;;;;;;;8.07;4.78;;;5.70;99.90;;;;;;4975759;28;20092;-87
2022/04/20 00:32:10;;;;;;;10.13;4.60;;;5.80;99.90;;;;;;4998932;28;20081;-87
2022/04/20 00:34:35;;;;;;;7.80;4.32;;;5.80;99.90;;;;;;4990833;28;20037;-86
2022/04/20 00:37:01;;;;;;;6.97;4.30;;;5.80;99.90;;;;;;5002065;28;20506;-86
2022/04/20 00:39:27;;;;;;;8.15;4.78;;;5.70;99.90;;;;;;5010296;28;20396;-86
2022/04/20 00:41:53;;;;;;;7.60;4.95;;;5.70;99.90;;;;;;4980134;28;20045;-86
2022/04/20 00:44:19;;;;;;;8.25;5.10;;;5.60;99.90;;;;;;4994726;28;20528;-86
2022/04/20 00:46:47;;;;;;;8.18;4.90;;;5.60;99.90;;;;;;5003743;28;20140;-87
2022/04/20 00:49:14;;;;;;;7.63;4.95;;;5.60;99.90;;;;;;4996171;28;20364;-86
2022/04/20 00:52:00;;;;;;;7.82;5.13;;;5.60;99.90;;;;;;4978579;28;20061;-86
2022/04/20 00:54:26;;;;;;;9.20;4.80;;;5.60;99.90;;;;;;4995150;28;20053;-86
2022/04/20 00:56:51;;;;;;;8.85;5.45;;;5.60;99.90;;;;;;4990093;28;20306;-87
2022/04/20 00:59:22;;;;;;;8.43;5.15;;;5.50;99.90;;;;;;5015944;28;20041;-86
2022/04/20 01:01:49;;;;;;;7.75;4.93;;;5.50;99.90;;;;;;5012695;28;20077;-86
2022/04/20 01:04:14;;;;;;;9.75;5.22;;;5.40;99.90;;;;;;4989504;28;20104;-85
2022/04/20 01:06:40;;;;;;;8.93;4.65;;;5.40;99.90;;;;;;4966435;28;20049;-85
2022/04/20 01:09:06;;;;;;;8.00;5.07;;;5.40;99.90;;;;;;4976318;28;20072;-86
2022/04/20 01:11:32;;;;;;;7.45;4.78;;;5.40;99.90;;;;;;4995044;28;20041;-86
2022/04/20 01:13:58;;;;;;;9.95;5.85;;;5.30;99.90;;;;;;5005074;28;20052;-85
2022/04/20 01:16:23;;;;;;;6.63;4.47;;;5.30;99.90;;;;;;4979525;28;20037;-86
2022/04/20 01:18:53;;;;;;;9.68;5.50;;;5.30;99.90;;;;;;4995508;28;20049;-87
2022/04/20 01:21:19;;;;;;;14.00;5.40;;;5.20;99.90;;;;;;4989206;28;20415;-86
2022/04/20 01:23:45;;;;;;;10.13;4.88;;;5.30;99.90;;;;;;4998198;28;20071;-86
2022/04/20 01:26:11;;;;;;;8.25;5.30;;;5.10;99.90;;;;;;5024821;28;20045;-85
2022/04/20 01:28:44;;;;;;;7.85;5.18;;;5.10;99.90;;;;;;4964642;28;20046;-86
2022/04/20 01:31:14;;;;;;;12.68;5.43;;;5.10;99.90;;;;;;4991697;28;20077;-87
2022/04/20 01:33:40;;;;;;;10.27;5.05;;;5.10;99.90;;;;;;5007799;28;20052;-85
2022/04/20 01:36:06;;;;;;;9.55;5.40;;;5.00;99.90;;;;;;4989429;28;20080;-88
2022/04/20 01:38:32;;;;;;;8.23;5.00;;;5.00;99.90;;;;;;4991167;28;20503;-87
2022/04/20 01:40:58;;;;;;;7.93;4.78;;;5.00;99.90;;;;;;4995717;28;20049;-84
2022/04/20 01:43:23;;;;;;;7.82;5.43;;;5.00;99.90;;;;;;4976050;28;20104;-84
2022/04/20 01:45:49;;;;;;;8.10;5.20;;;4.90;99.90;;;;;;4973298;28;20049;-85
2022/04/20 01:48:15;;;;;;;10.05;6.18;;;5.00;99.90;;;;;;5008006;28;20054;-86
2022/04/20 01:53:24;;;;;;;8.10;5.10;;;4.90;99.90;;;;;;4989566;28;20497;-85
2022/04/20 01:55:50;;;;;;;10.40;5.03;;;4.90;99.90;;;;;;4992067;28;20046;-86
2022/04/20 01:58:16;;;;;;;10.25;5.22;;;4.90;99.90;;;;;;5006257;28;20049;-86
2022/04/20 02:00:42;;;;;;;10.60;5.63;;;4.90;99.90;;;;;;5005500;28;20046;-86
2022/04/20 02:03:07;;;;;;;12.23;5.43;;;4.90;99.90;;;;;;4991963;28;20385;-86
2022/04/20 02:05:33;;;;;;;10.23;5.40;;;4.80;99.90;;;;;;4986328;28;20096;-86
2022/04/20 02:07:59;;;;;;;6.88;4.97;;;4.80;99.90;;;;;;4984515;28;20042;-87
2022/04/20 02:10:24;;;;;;;8.45;5.20;;;4.70;99.90;;;;;;4980350;28;20047;-87
2022/04/20 02:12:50;;;;;;;9.45;5.18;;;4.70;99.90;;;;;;4990279;28;20579;-87
2022/04/20 02:15:16;;;;;;;9.13;5.30;;;4.70;99.90;;;;;;4991543;28;20041;-87
2022/04/20 02:17:42;;;;;;;10.35;5.63;;;4.60;99.90;;;;;;4980867;28;20057;-86
2022/04/20 02:20:08;;;;;;;9.13;5.32;;;4.60;99.90;;;;;;4993236;28;20049;-86
2022/04/20 02:22:34;;;;;;;9.32;5.40;;;4.60;99.90;;;;;;4991869;28;20046;-86
2022/04/20 02:25:00;;;;;;;8.77;5.13;;;4.50;99.90;;;;;;5007960;28;20084;-87
2022/04/20 02:27:27;;;;;;;9.70;6.05;;;4.50;99.90;;;;;;4989335;28;20057;-86
2022/04/20 02:29:53;;;;;;;7.25;4.97;;;4.50;99.90;;;;;;4990616;28;20185;-86
2022/04/20 02:32:18;;;;;;;6.90;4.65;;;4.50;99.90;;;;;;4984132;28;20462;-87
2022/04/20 02:34:44;;;;;;;8.63;5.68;;;4.50;99.90;;;;;;4993325;28;20042;-86
2022/04/20 02:37:10;;;;;;;10.90;6.10;;;4.60;99.90;;;;;;4974549;28;20041;-86
2022/04/20 02:39:37;;;;;;;9.40;5.53;;;4.50;99.90;;;;;;4990471;28;20069;-86
2022/04/20 02:42:04;;;;;;;10.35;5.60;;;4.50;99.90;;;;;;4987465;28;20132;-87
2022/04/20 02:44:30;;;;;;;7.65;5.55;;;4.50;99.90;;;;;;5012844;28;20525;-86
2022/04/20 02:46:57;;;;;;;10.00;5.80;;;4.50;99.90;;;;;;4995397;28;20050;-86
2022/04/20 02:49:22;;;;;;;9.63;5.32;;;4.50;99.90;;;;;;5011517;28;20050;-86
2022/04/20 02:51:48;;;;;;;9.93;5.30;;;4.40;99.90;;;;;;4985500;28;20046;-86
2022/04/20 02:54:14;;;;;;;8.82;6.03;;;4.40;99.90;;;;;;4982161;28;20046;-86
2022/04/20 02:56:39;;;;;;;9.80;5.90;;;4.40;99.90;;;;;;4988108;28;20092;-86
2022/04/20 02:59:05;;;;;;;8.23;5.00;;;4.30;99.90;;;;;;5004333;28;20123;-87
2022/04/20 03:01:31;;;;;;;9.95;5.53;;;4.30;99.90;;;;;;4960409;28;20054;-86
2022/04/20 03:04:00;;;;;;;8.10;5.80;;;4.30;99.90;;;;;;5009971;28;20107;-86
2022/04/20 03:06:27;;;;;;;9.57;6.07;;;4.30;99.90;;;;;;4977428;28;20115;-86
2022/04/20 03:08:53;;;;;;;9.05;5.55;;;4.20;99.90;;;;;;5011139;28;20185;-85
2022/04/20 03:11:19;;;;;;;9.80;6.07;;;4.20;99.90;;;;;;4978730;28;20041;-86
2022/04/20 03:13:46;;;;;;;11.15;6.10;;;4.10;99.90;;;;;;5010234;28;20077;-87
2022/04/20 03:16:12;;;;;;;10.80;5.78;;;4.10;99.90;;;;;;5012895;28;20049;-86
2022/04/20 03:18:37;;;;;;;9.57;5.75;;;4.00;99.90;;;;;;4976850;28;20049;-85
2022/04/20 03:21:03;;;;;;;8.68;5.63;;;4.00;99.90;;;;;;4972157;28;20058;-86
2022/04/20 03:23:30;;;;;;;10.25;5.80;;;4.00;99.90;;;;;;4980167;28;20038;-87
2022/04/20 03:25:56;;;;;;;8.82;5.10;;;3.90;99.90;;;;;;4992256;28;20212;-86
2022/04/20 03:28:22;;;;;;;10.10;5.75;;;4.00;99.90;;;;;;4991785;28;20061;-86
2022/04/20 03:30:48;;;;;;;9.23;5.95;;;4.00;99.90;;;;;;4987435;28;20061;-86
2022/04/20 03:33:14;;;;;;;8.90;5.43;;;4.00;99.90;;;;;;4993151;28;20061;-86
2022/04/20 03:35:40;;;;;;;8.18;5.45;;;4.00;99.90;;;;;;5009035;28;20046;-85
2022/04/20 03:38:07;;;;;;;8.93;5.70;;;4.00;99.90;;;;;;5010704;28;20148;-86
2022/04/20 03:40:33;;;;;;;9.35;5.85;;;4.00;99.90;;;;;;4993899;28;20446;-86
2022/04/20 03:42:58;;;;;;;10.85;5.30;;;4.00;99.90;;;;;;5005748;28;20053;-86
2022/04/20 03:45:24;;;;;;;10.02;5.60;;;4.00;99.90;;;;;;4976254;28;20414;-86
2022/04/20 03:47:50;;;;;;;11.30;5.30;;;4.00;99.90;;;;;;4994231;28;20045;-87
2022/04/20 03:50:15;;;;;;;9.07;5.40;;;4.00;99.90;;;;;;5000260;28;20132;-86
2022/04/20 03:52:41;;;;;;;9.40;5.80;;;3.90;99.90;;;;;;5012290;28;20130;-85
2022/04/20 03:55:07;;;;;;;10.07;6.55;;;3.80;99.90;;;;;;4987921;28;20488;-87
2022/04/20 03:57:33;;;;;;;9.55;5.53;;;3.80;99.90;;;;;;5009529;28;20133;-86
2022/04/20 03:59:59;;;;;;;9.15;5.45;;;3.80;99.90;;;;;;5014655;28;20511;-87
2022/04/20 04:02:24;;;;;;;11.48;6.25;;;3.80;99.90;;;;;;5011486;28;20042;-86
2022/04/20 04:04:50;;;;;;;8.65;5.65;;;3.80;99.90;;;;;;5008075;28;20060;-86
2022/04/20 04:07:16;;;;;;;8.77;6.00;;;3.70;99.90;;;;;;5012455;28;20399;-86
2022/04/20 04:09:42;;;;;;;9.70;5.68;;;3.70;99.90;;;;;;4973797;28;20146;-86
2022/04/20 04:12:09;;;;;;;7.75;5.60;;;3.70;99.90;;;;;;5007568;28;20191;-87
2022/04/20 04:14:39;;;;;;;9.10;5.78;;;3.70;99.90;;;;;;4991934;28;20113;-86
2022/04/20 04:17:05;;;;;;;10.52;5.60;;;3.70;99.90;;;;;;5009061;28;20057;-86
2022/04/20 04:19:31;;;;;;;9.65;6.13;;;3.60;99.90;;;;;;4992397;28;20085;-87
2022/04/20 04:21:56;;;;;;;11.07;5.93;;;3.60;99.90;;;;;;5009014;28;20045;-86
2022/04/20 04:24:34;;;;;;;8.45;5.68;;;3.60;99.90;;;;;;4998295;28;20061;-87
2022/04/20 04:27:00;;;;;;;8.02;5.45;;;3.50;99.90;;;;;;5014170;28;20050;-87
2022/04/20 04:29:27;;;;;;;9.10;6.00;;;3.50;99.90;;;;;;5009593;28;20069;-86
2022/04/20 04:31:53;;;;;;;8.95;5.45;;;3.50;99.90;;;;;;5004749;28;20057;-86
2022/04/20 04:34:19;;;;;;;10.70;5.80;;;3.40;99.90;;;;;;4988954;28;20065;-85
2022/04/20 04:36:45;;;;;;;8.73;5.70;;;3.40;99.90;;;;;;4991950;28;20749;-85
2022/04/20 04:39:10;;;;;;;11.90;5.93;;;3.40;99.90;;;;;;4990690;28;20079;-85
2022/04/20 04:41:36;;;;;;;9.95;5.80;;;3.50;99.90;;;;;;4983455;28;20044;-88
2022/04/20 04:44:02;;;;;;;8.48;5.93;;;3.50;99.90;;;;;;4991572;28;20153;-88
2022/04/20 04:49:12;;;;;;;9.23;5.00;;;3.50;99.90;;;;;;5010516;28;20038;-87
2022/04/20 04:51:37;;;;;;;9.13;5.22;;;3.60;99.90;;;;;;4969947;28;20042;-88
2022/04/20 04:54:03;;;;;;;9.70;5.82;;;3.60;99.90;;;;;;4987809;28;20528;-89
2022/04/20 04:56:31;;;;;;;8.23;5.50;;;3.70;99.90;;;;;;5004388;28;20160;-88
2022/04/20 04:58:59;;;;;;;10.63;5.10;;;3.70;99.90;;;;;;4985622;28;20041;-88
2022/04/20 05:01:25;;;;;;;9.75;5.47;;;3.70;99.90;;;;;;4992630;28;20042;-88
2022/04/20 05:04:03;;;;;;;8.55;5.60;;;3.80;99.90;;;;;;4990865;28;20574;-87
2022/04/20 05:06:35;;;;;;;7.90;5.60;;;3.90;99.90;;;;;;4997471;28;20097;-87
2022/04/20 05:09:00;;;;;;;11.48;5.50;;;3.90;99.90;;;;;;4965779;28;20045;-87
2022/04/20 05:11:29;;;;;;;9.80;5.55;;;3.90;99.90;;;;;;5000874;28;20038;-89
2022/04/20 05:13:55;;;;;;;9.68;5.82;;;3.90;99.90;;;;;;4984465;28;20046;-87
2022/04/20 05:16:31;;;;;;;11.13;5.47;;;4.00;99.90;;;;;;4986415;28;20148;-88
2022/04/20 05:18:59;;;;;;;9.27;5.72;;;4.10;99.90;;;;;;4999569;28;20084;-85
2022/04/20 05:21:25;;;;;;;7.72;5.45;;;4.20;99.90;;;;;;4981167;28;20053;-86
2022/04/20 05:23:58;;;;;;;12.32;6.00;;;4.30;99.90;;;;;;4996380;28;20076;-87
2022/04/20 05:26:25;;;;;;;10.88;5.53;;;4.40;99.90;;;;;;4987984;28;20050;-85
2022/04/20 05:28:52;;;;;;;9.07;5.13;;;4.50;99.90;;;;;;4986853;28;20111;-86
2022/04/20 05:31:20;;;;;;;8.38;5.55;;;4.60;99.90;;;;;;4985109;28;20490;-86
2022/04/20 05:33:48;;;;;;;9.82;5.70;;;4.60;99.90;;;;;;4983508;28;20518;-86
2022/04/20 05:36:14;;;;;;;7.88;6.05;;;4.80;99.90;;;;;;4986066;28;20064;-86
2022/04/20 05:41:40;;;;;;;9.00;5.25;;;5.00;99.90;;;;;;4953602;28;20053;-84
2022/04/20 05:44:11;;;;;;;8.57;5.22;;;5.30;99.90;;;;;;4993616;28;20057;-85
2022/04/20 05:46:41;;;;;;;8.40;4.85;;;5.50;99.90;;;;;;4989380;28;20049;-85
2022/04/20 05:49:09;;;;;;;11.13;5.35;;;5.70;99.90;;;;;;5003959;28;20133;-85
2022/04/20 05:51:38;;;;;;;8.18;5.47;;;6.00;99.90;;;;;;5008628;28;20056;-86
2022/04/20 05:54:07;;;;;;;7.82;5.03;;;6.20;99.90;;;;;;5010854;28;20522;-84
2022/04/20 05:56:36;;;;;;;14.23;5.25;;;6.50;99.90;;;;;;4977449;28;20069;-85
2022/04/20 05:59:01;;;;;;;6.20;4.50;;;6.70;99.90;;;;;;4972834;28;20038;-85
2022/04/20 06:01:27;;;;;;;8.63;4.60;;;6.90;99.90;;;;;;4973377;28;20065;-86
2022/04/20 06:03:56;;;;;;;6.93;4.80;;;7.10;99.90;;;;;;4973126;28;20516;-85
2022/04/20 06:06:21;;;;;;;9.38;4.95;;;7.30;99.90;;;;;;4973505;28;20046;-84
2022/04/20 06:08:47;;;;;;;7.40;4.60;;;7.60;99.90;;;;;;4988840;28;20046;-86
2022/04/20 06:11:16;;;;;;;8.13;4.47;;;7.70;99.90;;;;;;4973101;28;20051;-85
2022/04/20 06:13:44;;;;;;;7.05;4.75;;;8.00;99.90;;;;;;4972654;28;20042;-84
2022/04/20 06:16:10;;;;;;;5.32;4.45;;;8.30;99.90;;;;;;4973108;28;20515;-85
2022/04/20 06:18:37;;;;;;;6.93;4.97;;;8.40;99.90;;;;;;4972943;28;20047;-85
2022/04/20 06:21:05;;;;;;;7.03;4.93;;;8.60;99.90;;;;;;4973034;28;20507;-85
2022/04/20 06:23:31;;;;;;;6.63;5.07;;;8.70;99.90;;;;;;4992293;28;20088;-85
2022/04/20 06:25:57;;;;;;;8.52;4.90;;;8.90;99.90;;;;;;5008109;28;20057;-85
2022/04/20 06:28:28;;;;;;;7.53;4.78;;;8.90;99.90;;;;;;4992341;28;20072;-84
2022/04/20 06:30:55;;;;;;;6.65;4.85;;;9.10;99.90;;;;;;4991806;28;20061;-85
2022/04/20 06:33:24;;;;;;;6.13;4.53;;;9.10;99.90;;;;;;4991808;28;20076;-85
2022/04/20 06:35:51;;;;;;;8.07;4.93;;;9.00;99.90;;;;;;5008030;28;20054;-85
2022/04/20 06:38:17;;;;;;;5.43;4.65;;;9.00;99.90;;;;;;4993676;28;20053;-85
2022/04/20 06:40:45;;;;;;;9.25;5.30;;;8.90;99.90;;;;;;4995901;28;20498;-85
2022/04/20 06:43:14;;;;;;;7.63;4.80;;;8.90;99.90;;;;;;5011850;28;20042;-84
2022/04/20 06:45:40;;;;;;;6.88;5.05;;;8.90;99.90;;;;;;5012221;28;20046;-84
2022/04/20 06:48:06;;;;;;;7.72;5.05;;;8.90;99.90;;;;;;4978903;28;20050;-85
2022/04/20 06:50:36;;;;;;;9.52;4.70;;;9.00;99.90;;;;;;5012106;28;20100;-84
2022/04/20 06:58:35;;;;;;;8.07;5.00;;;9.10;99.90;;;;;;4998331;28;20404;-84
2022/04/20 07:01:04;;;;;;;6.72;5.00;;;9.10;99.90;;;;;;4995329;28;20050;-84
2022/04/20 07:03:31;;;;;;;6.45;4.88;;;9.10;99.90;;;;;;4995885;28;20049;-84
2022/04/20 07:05:57;;;;;;;6.72;5.00;;;9.10;99.90;;;;;;4995414;28;20100;-83
2022/04/20 07:08:24;;;;;;;8.60;4.95;;;9.20;99.90;;;;;;4979665;28;20062;-84
2022/04/20 07:10:50;;;;;;;6.95;4.28;;;9.10;99.90;;;;;;4995394;28;20085;-86
2022/04/20 07:13:16;;;;;;;6.65;4.88;;;9.10;99.90;;;;;;4995424;28;20057;-84
2022/04/20 07:15:42;;;;;;;12.93;4.55;;;9.10;99.90;;;;;;4979249;28;20049;-84
2022/04/20 07:18:09;;;;;;;6.70;5.10;;;9.10;99.90;;;;;;5010868;28;20080;-83
2022/04/20 07:20:34;;;;;;;6.90;4.47;;;9.10;99.90;;;;;;5011555;28;20085;-85
2022/04/20 07:23:00;;;;;;;5.85;4.15;;;9.10;99.90;;;;;;4978634;28;20084;-85
2022/04/20 07:25:26;;;;;;;5.53;3.92;;;9.10;99.90;;;;;;5011246;28;20084;-84
2022/04/20 07:27:52;;;;;;;8.85;4.35;;;9.20;99.90;;;;;;4978390;28;20078;-86
2022/04/20 07:30:18;;;;;;;11.65;4.63;;;9.10;99.90;;;;;;4994750;28;20066;-85
2022/04/20 07:32:44;;;;;;;6.72;4.30;;;9.20;99.90;;;;;;5011346;28;20054;-84
2022/04/20 07:35:10;;;;;;;7.70;4.22;;;9.20;99.90;;;;;;5011040;28;20046;-83
2022/04/20 07:37:36;;;;;;;5.50;3.50;;;9.20;99.90;;;;;;4995199;28;20050;-84
2022/04/20 07:40:02;;;;;;;5.60;4.00;;;9.20;99.90;;;;;;4995040;28;20092;-85
2022/04/20 07:42:28;;;;;;;7.03;4.40;;;9.20;99.90;;;;;;5011791;28;20045;-85
2022/04/20 07:44:56;;;;;;;5.88;3.80;;;9.30;99.90;;;;;;4994625;28;20046;-85
2022/04/20 07:47:25;;;;;;;7.47;4.10;;;9.40;99.90;;;;;;4978994;28;20054;-86
2022/04/20 07:52:57;;;;;;;5.50;3.40;;;9.40;99.90;;;;;;5011537;28;20136;-84
2022/04/20 07:55:28;;;;;;;8.85;4.18;;;9.50;99.90;;;;;;4994461;28;20372;-85
2022/04/20 07:57:57;;;;;;;8.07;3.83;;;9.60;99.90;;;;;;5010920;28;20050;-85
2022/04/20 08:00:24;;;;;;;5.70;3.13;;;9.70;99.90;;;;;;5009434;28;20084;-87
2022/04/20 08:02:50;;;;;;;5.93;3.58;;;9.70;99.90;;;;;;4977480;28;20050;-85
2022/04/20 08:05:19;;;;;;;7.60;3.63;;;9.80;99.90;;;;;;5010391;28;20065;-85
2022/04/20 08:07:45;;;;;;;7.45;3.50;;;9.80;99.90;;;;;;4978322;28;20111;-85
2022/04/20 08:10:12;;;;;;;6.28;3.10;;;9.90;99.90;;;;;;4994421;28;20050;-85
2022/04/20 08:12:43;;;;;;;4.93;3.15;;;10.00;99.20;;;;;;5011039;28;20053;-85
2022/04/20 08:15:10;;;;;;;3.40;2.10;;;10.10;96.80;;;;;;4977696;28;20046;-85
2022/04/20 08:17:37;;;;;;;5.45;2.38;;;10.20;92.30;;;;;;5010926;28;20049;-85
2022/04/20 08:20:07;;;;;;;4.50;2.40;;;10.30;91.90;;;;;;5010320;28;20045;-85
2022/04/20 08:22:40;;;;;;;6.85;2.72;;;10.40;90.60;;;;;;4965361;28;20058;-84
2022/04/20 08:25:06;;;;;;;4.25;2.78;;;10.60;87.90;;;;;;4958440;28;20049;-86
2022/04/20 08:27:32;;;;;;;5.38;2.75;;;10.60;86.60;;;;;;4974972;28;20085;-84
2022/04/20 08:29:58;;;;;;;5.55;2.20;;;10.70;87.70;;;;;;4990316;28;20076;-85
2022/04/20 08:32:24;;;;;;;2.65;1.80;;;10.80;81.70;;;;;;4974797;28;20140;-84
2022/04/20 08:34:51;;;;;;;7.93;2.60;;;10.90;77.70;;;;;;4942540;28;20065;-85
2022/04/20 08:37:16;;;;;;;3.97;3.15;;;11.10;76.70;;;;;;4990439;28;20593;-84
2022/04/20 08:39:42;;;;;;;4.10;2.00;;;11.10;72.00;;;;;;4974858;28;20133;-86
2022/04/20 08:42:11;;;;;;;6.30;1.77;;;11.30;69.70;;;;;;4942054;28;20050;-85
2022/04/20 08:44:46;;;;;;;4.40;2.13;;;11.40;69.10;;;;;;4990670;28;20046;-85
2022/04/20 08:47:19;;;;;;;3.15;2.00;;;11.50;67.50;;;;;;4990566;28;20096;-85
2022/04/20 08:49:47;;;;;;;3.60;1.70;;;11.60;64.00;;;;;;4974405;28;20645;-85
2022/04/20 08:54:57;;;;;;;3.97;1.90;;;11.80;65.30;;;;;;4978903;28;20046;-86
2022/04/20 08:57:24;;;;;;;3.05;1.90;;;12.10;63.50;;;;;;5009973;28;20081;-85
2022/04/20 08:59:51;;;;;;;2.67;1.75;;;12.30;63.20;;;;;;5009714;28;20144;-85
2022/04/20 09:02:20;;;;;;;2.58;1.60;;;12.60;60.30;;;;;;5008944;28;20595;-85
2022/04/20 09:04:46;;;;;;;2.95;2.00;;;12.80;55.80;;;;;;4993198;28;20060;-85
2022/04/20 09:07:15;;;;;;;2.33;1.38;;;13.00;55.70;;;;;;4976885;28;20053;-85
2022/04/20 09:09:47;;;;;;;2.75;1.70;;;13.20;53.30;;;;;;4993599;28;20054;-84
2022/04/20 09:12:18;;;;;;;6.07;1.85;;;14.00;53.90;;;;;;5009675;28;20046;-85
2022/04/20 09:14:51;;;;;;;3.72;1.80;;;15.40;51.10;;;;;;5009659;28;20052;-84
2022/04/20 09:17:24;;;;;;;3.03;1.52;;;16.60;49.10;;;;;;5009264;28;20111;-85
2022/04/20 09:19:52;;;;;;;4.68;1.63;;;17.60;44.30;;;;;;5008949;28;20107;-85
2022/04/20 09:22:26;;;;;;;4.57;1.80;;;18.40;44.10;;;;;;5008469;28;20501;-85
2022/04/20 09:25:11;;;;;;;3.40;2.00;;;18.90;41.70;;;;;;5009414;28;20746;-85
2022/04/20 09:27:41;;;;;;;4.00;1.63;;;19.30;34.90;;;;;;5009698;28;20108;-85
2022/04/20 09:30:15;;;;;;;4.45;1.60;;;19.60;37.50;;;;;;5013413;28;20065;-85
2022/04/20 09:32:46;;;;;;;3.67;1.50;;;19.80;36.40;;;;;;4996357;28;20510;-86
2022/04/20 09:35:19;;;;;;;2.00;1.60;;;20.10;36.40;;;;;;5012265;28;20046;-85
2022/04/20 09:38:06;;;;;;;2.55;1.67;;;20.30;35.30;;;;;;5012428;28;20552;-85
2022/04/20 09:40:40;;;;;;;5.07;1.63;;;20.90;33.90;;;;;;4995838;28;20061;-85
2022/04/20 09:43:21;;;;;;;5.35;1.83;;;21.30;34.70;;;;;;5011818;28;20501;-86
2022/04/20 09:49:07;;;;;;;2.33;1.60;;;22.00;31.50;;;;;;5012372;28;20085;-86
2022/04/20 09:51:41;;;;;;;2.20;1.48;;;22.40;30.40;;;;;;4996027;28;20148;-85
2022/04/20 09:54:24;;;;;;;2.00;1.40;;;22.50;31.10;;;;;;4995373;28;20037;-86
2022/04/20 09:57:12;;;;;;;3.97;1.60;;;22.80;29.70;;;;;;4995901;28;20110;-85
2022/04/20 10:00:05;;;;;;;3.78;1.60;;;22.80;28.20;;;;;;4979950;28;20292;-85
2022/04/20 10:02:36;;;;;;;2.40;1.48;;;23.10;29.70;;;;;;4995797;28;20459;-86
2022/04/20 10:05:03;;;;;;;4.55;1.50;;;23.30;29.60;;;;;;5011686;28;20156;-86
2022/04/20 10:07:31;;;;;;;2.75;1.30;;;23.30;28.10;;;;;;5012043;28;20171;-85
2022/04/20 10:09:57;;;;;;;2.63;1.50;;;23.10;28.10;;;;;;4979226;28;20084;-85
2022/04/20 10:12:24;;;;;;;4.20;1.45;;;23.00;27.90;;;;;;4996830;28;20054;-86
2022/04/20 10:17:46;;;;;;;1.60;1.35;;;23.50;27.70;;;;;;5002646;28;20524;-86
2022/04/20 10:20:13;;;;;;;4.10;1.55;;;23.90;27.80;;;;;;4999055;28;20093;-86
2022/04/20 10:22:40;;;;;;;4.28;1.20;;;24.10;27.40;;;;;;5015728;28;20509;-85
2022/04/20 10:25:07;;;;;;;4.25;1.55;;;24.20;27.00;;;;;;5015057;28;20819;-86
2022/04/20 10:27:57;;;;;;;2.60;1.48;;;24.20;26.40;;;;;;4999739;28;20056;-85
2022/04/20 10:31:06;;;;;;;2.88;1.30;;;24.20;25.60;;;;;;4998539;28;20245;-85
2022/04/20 10:33:34;;;;;;;2.05;1.58;;;24.60;26.00;;;;;;4999348;28;20037;-85
2022/04/20 10:36:06;;;;;;;3.80;1.50;;;25.00;26.60;;;;;;4999191;28;20099;-85
2022/04/20 10:38:32;;;;;;;1.67;1.52;;;25.20;25.50;;;;;;4999341;28;20053;-86
2022/04/20 10:41:07;;;;;;;3.28;1.80;;;25.40;25.50;;;;;;5015294;28;20081;-85
2022/04/20 10:43:35;;;;;;;2.80;1.80;;;25.90;25.80;;;;;;4999051;28;20084;-85
2022/04/20 10:46:07;;;;;;;1.70;1.38;;;26.10;25.70;;;;;;4999387;28;20053;-85
2022/04/20 10:49:07;;;;;;;2.33;1.55;;;25.90;23.70;;;;;;4982849;28;20064;-86
2022/04/20 10:51:40;;;;;;;3.63;1.50;;;25.60;24.60;;;;;;5015046;28;20132;-85
2022/04/20 10:54:20;;;;;;;5.93;1.55;;;24.90;24.50;;;;;;4998369;28;20045;-86
2022/04/20 10:57:18;;;;;;;2.08;1.50;;;24.80;24.60;;;;;;4998464;28;20703;-86
2022/04/20 11:00:24;;;;;;;2.38;1.45;;;24.70;24.60;;;;;;4998921;28;20049;-85
2022/04/20 11:03:06;;;;;;;4.35;1.58;;;25.20;25.30;;;;;;5014963;28;20053;-85
2022/04/20 11:05:49;;;;;;;1.98;1.40;;;25.50;24.30;;;;;;4998705;28;20053;-85
2022/04/20 11:08:18;;;;;;;2.58;1.25;;;26.00;25.40;;;;;;5013874;28;20375;-85
2022/04/20 11:19:52;;;;;;;2.20;1.23;;;27.00;23.40;;;;;;5014827;28;20060;-85
2022/04/20 11:22:18;;;;;;;2.60;1.30;;;27.50;23.40;;;;;;5014073;28;20132;-85
2022/04/20 11:24:44;;;;;;;3.10;1.30;;;27.80;23.00;;;;;;4997786;28;20092;-86
2022/04/20 11:27:11;;;;;;;3.72;1.55;;;27.70;22.30;;;;;;4997473;28;20061;-86
2022/04/20 11:29:37;;;;;;;3.30;1.27;;;27.20;22.60;;;;;;5014701;28;20059;-85
2022/04/20 11:32:04;;;;;;;2.63;1.30;;;27.40;23.10;;;;;;4997843;28;20119;-85
2022/04/20 11:34:35;;;;;;;2.50;1.33;;;27.70;22.80;;;;;;4997530;28;20118;-85
2022/04/20 11:37:06;;;;;;;3.10;1.15;;;27.80;22.10;;;;;;4998089;28;20071;-86
2022/04/20 11:39:33;;;;;;;2.65;1.27;;;28.20;22.40;;;;;;4997792;28;20054;-85
2022/04/20 11:42:01;;;;;;;2.30;1.10;;;28.20;22.20;;;;;;4997864;28;20056;-85
2022/04/20 11:44:28;;;;;;;1.83;1.08;;;28.40;20.90;;;;;;4997329;28;20081;-86
2022/04/20 11:46:59;;;;;;;4.05;1.52;;;28.60;20.80;;;;;;5014056;28;20057;-86
2022/04/20 11:49:42;;;;;;;1.20;1.00;;;28.60;20.60;;;;;;5013527;28;20049;-85
2022/04/20 11:52:17;;;;;;;1.10;1.00;;;28.40;19.50;;;;;;4997461;28;20080;-87
2022/04/20 11:54:47;;;;;;;2.45;1.17;;;28.40;20.10;;;;;;5013932;28;20494;-85
2022/04/20 11:57:15;;;;;;;4.57;1.40;;;28.60;20.20;;;;;;4997510;28;20315;-85
2022/04/20 11:59:46;;;;;;;1.45;1.10;;;28.70;19.90;;;;;;4997795;28;20051;-84
2022/04/20 12:02:13;;;;;;;2.50;1.55;;;29.20;19.80;;;;;;4997326;28;20072;-84
2022/04/20 12:04:40;;;;;;;1.30;1.20;;;29.60;20.20;;;;;;4981299;28;20042;-84
2022/04/20 12:07:06;;;;;;;1.60;1.10;;;29.80;19.60;;;;;;4981276;28;20098;-85
2022/04/20 12:09:36;;;;;;;1.50;1.10;;;29.70;19.40;;;;;;5013040;28;20041;-84
2022/04/20 12:12:05;;;;;;;3.17;1.00;;;29.50;19.20;;;;;;4997494;28;20045;-85
2022/04/20 12:14:37;;;;;;;2.47;1.20;;;29.80;19.40;;;;;;4996544;28;20046;-85
2022/04/20 12:17:08;;;;;;;2.20;1.20;;;30.10;19.90;;;;;;4997529;28;20045;-85
2022/04/20 12:19:34;;;;;;;3.25;1.80;;;30.40;19.10;;;;;;5013279;28;20183;-85
2022/04/20 12:22:08;;;;;;;4.95;1.15;;;30.50;18.80;;;;;;5013361;28;20053;-85
2022/04/20 12:24:34;;;;;;;2.80;1.10;;;30.10;18.40;;;;;;4996292;28;20153;-85
2022/04/20 12:27:00;;;;;;;2.33;1.20;;;30.00;18.90;;;;;;4996997;28;20542;-85
2022/04/20 12:29:29;;;;;;;1.52;1.23;;;29.90;18.70;;;;;;4996324;28;20756;-85
2022/04/20 12:31:55;;;;;;;1.00;0.90;;;29.80;19.10;;;;;;5013090;28;20136;-84
2022/04/20 12:34:24;;;;;;;1.30;1.00;;;29.90;18.90;;;;;;5012643;28;20072;-85
2022/04/20 12:36:58;;;;;;;1.85;1.38;;;30.20;19.00;;;;;;4995789;28;20045;-85
2022/04/20 12:39:36;;;;;;;4.93;1.00;;;30.00;18.80;;;;;;4996383;28;20589;-85
2022/04/20 12:42:15;;;;;;;2.17;1.02;;;30.00;18.50;;;;;;5013069;28;20124;-84
2022/04/20 12:44:46;;;;;;;1.90;1.20;;;29.90;18.20;;;;;;4996929;28;20057;-85
2022/04/20 12:47:14;;;;;;;2.42;1.10;;;29.70;18.60;;;;;;4996383;28;20057;-85
2022/04/20 12:49:48;;;;;;;1.52;1.00;;;29.30;18.60;;;;;;5013031;28;20080;-85
2022/04/20 12:52:15;;;;;;;3.92;1.10;;;29.60;18.80;;;;;;4997223;28;20430;-85
2022/04/20 12:54:53;;;;;;;2.72;1.27;;;29.60;18.80;;;;;;4996375;28;20068;-85
2022/04/20 13:02:58;;;;;;;2.35;1.65;;;28.40;20.40;;;;;;5012698;28;20045;-85
2022/04/20 13:05:24;;;;;;;1.15;1.02;;;27.90;20.50;;;;;;5012078;28;20045;-85
2022/04/20 13:07:50;;;;;;;1.70;1.10;;;27.50;20.10;;;;;;4996284;28;20138;-85
2022/04/20 13:10:19;;;;;;;6.32;1.55;;;27.70;20.50;;;;;;4979725;28;20053;-85
2022/04/20 13:12:52;;;;;;;1.73;0.95;;;27.70;20.60;;;;;;4996873;28;20090;-85
2022/04/20 13:15:19;;;;;;;4.07;1.25;;;27.70;21.00;;;;;;4995614;28;20129;-85
2022/04/20 13:17:46;;;;;;;2.47;1.40;;;27.90;21.30;;;;;;4980183;28;20111;-85
2022/04/20 13:20:12;;;;;;;2.67;1.42;;;28.40;20.70;;;;;;5011981;28;20045;-85
2022/04/20 13:22:38;;;;;;;2.72;1.40;;;28.50;20.90;;;;;;4996175;28;20072;-85
2022/04/20 13:27:55;;;;;;;1.85;1.50;;;28.70;21.00;;;;;;4998184;28;20041;-85
2022/04/20 13:30:39;;;;;;;2.92;1.60;;;28.40;21.10;;;;;;4995326;28;20400;-85
2022/04/20 13:33:08;;;;;;;2.63;1.73;;;28.40;21.60;;;;;;4995903;28;20056;-85
2022/04/20 13:35:34;;;;;;;4.90;1.70;;;28.80;21.00;;;;;;5011808;28;20075;-84
2022/04/20 13:38:01;;;;;;;3.05;1.63;;;28.90;21.10;;;;;;4995885;28;20518;-84
2022/04/20 13:40:27;;;;;;;4.07;1.48;;;28.80;21.10;;;;;;4995557;28;20056;-85
2022/04/20 13:42:56;;;;;;;2.17;1.75;;;28.80;21.20;;;;;;4995895;28;20099;-84